الصفحة الرئيسية
METAR-TAF:

METAR-TAF

مطار :

أوسترافا, التشيك

دائرة عرض: 49-41N, خط طول: 018-07E, ارتفاع: 256 متر

مراقبة الطقس الحالي

تاريخ ووقت الإصدار 41 دقيقة قبل الساعة 02:00UTC
ريح 1 عقدة من الجنوب/الجنوب الغربي
درجة الحرارة 15°درجة مئوية
الرطوبة 94%
ضغط 1022 hPa
الرؤية 10 كم أو أكثر
الغيوم لا تقل 1500 م ولا وجود لمزنة ركامية السحاب الأسود

METAR: LKMT 180200Z 21001KT CAVOK 15/14 Q1022 NOSIG

زمن: 04:41 (02:41 UTC)

توقعات

تاريخ ووقت الإصدار 3ساعات و 41 دقيقة قبل الساعة 23:00UTC
التوقعات صالحة من18 الساعة 00 UTC إلى 19 الساعة 00 UTC
ريح 3 عقدة من الشمال/الشمال الشرقي
الرؤية 10 كم أو أكثر
الغيوم لا تقل 1500 م ولا وجود لمزنة ركامية السحاب الأسود
مؤقت
من 18 الساعة 07 UTC إلى 18 الساعة 18 UTC
ريح 10 عقدة من الشمال/الشمال الشرقي

TAF: LKMT 172300Z 1800/1900 02003KT CAVOK TEMPO 1807/1818 02010KT

أرصاد الطقس والتوقعات من أكثر من 4000 مطار (تقارير الطقس للمطار METAR والتنبؤ بالطقس بالمطارTAF).

المحطات المتاحة هي النقط الصفراء والحمراء على الخريطة.

حرك المؤشر فوق النقطة لمعرفة اسم المحطة.

ثم انقر لمعرفة أرصاد وتوقعات الطقس.

لتغيير الخارطة: اضغط على الأزرار الخضراء مع رمز الصليب الأسود للتكبير. على الزر الأخضر مع شرطة للتصغير، أو على الأسهم الخضراء للخرائط المجاورة.


METAR-TAF: